KRMG/RMG METAR and TAF weather

Enter ICAO airport designator
Station Type Date Time Source
KRMG METAR 2020/09/22 03:53 UTC NOAA

KRMG 220353Z AUTO 30003KT 10SM CLR 13/08 A3031 RMK AO2 SLP259 T01280078


Station Type Date Time Source
KRMG Decoded METAR 2020/09/22 03:53 UTC NOAA

ROME R. B. RUSSELL AIRPORT, GA, United States (KRMG) 34-21N 085-10W 193M
Sep 21, 2020 - 11:53 PM EDT / 2020.09.22 0353 UTC
Wind: from the WNW (300 degrees) at 3 MPH (3 KT):0
Visibility: 10 mile(s):0
Sky conditions: clear
Temperature: 55.0 F (12.8 C)
Dew Point: 46.0 F (7.8 C)
Relative Humidity: 71%
Pressure (altimeter): 30.31 in. Hg (1026 hPa)
ob: KRMG 220353Z AUTO 30003KT 10SM CLR 13/08 A3031 RMK AO2 SLP259 T01280078
cycle: 4

Station Type Date Time Source
KRMG TAF UTC NOAA

Error!

Example: see airport list